createdAt,value
2018-05-21T00:00:01.291Z,1.0
2018-05-21T00:05:01.260Z,1.0
2018-05-21T00:10:01.263Z,1.0
2018-05-21T00:15:01.253Z,1.0
2018-05-21T00:25:01.260Z,0.8
2018-05-21T00:30:01.306Z,0.6
2018-05-21T00:35:01.222Z,0.6
2018-05-21T00:40:01.257Z,0.5
2018-05-21T00:45:01.189Z,0.7
2018-05-21T00:50:01.209Z,0.8
2018-05-21T01:10:01.680Z,1.0
2018-05-21T01:15:01.532Z,0.7
2018-05-21T01:20:01.967Z,0.8
2018-05-21T01:25:01.571Z,0.9
2018-05-21T01:30:01.678Z,0.9
2018-05-21T01:35:01.551Z,0.9
2018-05-21T01:45:02.319Z,1.0
2018-05-21T01:50:01.583Z,1.0
2018-05-21T01:55:01.519Z,1.2
2018-05-21T02:00:01.908Z,1.2
2018-05-21T02:05:01.536Z,1.4
2018-05-21T02:10:01.781Z,1.4
2018-05-21T02:15:01.573Z,1.5
2018-05-21T02:20:01.831Z,1.5
2018-05-21T02:25:01.535Z,1.5
2018-05-21T02:30:01.774Z,1.5
2018-05-21T02:35:01.513Z,1.7
2018-05-21T02:40:01.712Z,1.8
2018-05-21T02:45:01.551Z,1.8
2018-05-21T02:50:01.646Z,2.2
2018-05-21T02:55:01.578Z,2.2
2018-05-21T03:00:01.687Z,2.3
2018-05-21T03:05:01.567Z,2.3
2018-05-21T03:10:01.822Z,2.5
2018-05-21T03:15:01.525Z,2.4
2018-05-21T03:20:01.911Z,2.3
2018-05-21T03:25:01.500Z,2.2
2018-05-21T03:30:01.595Z,2.2
2018-05-21T03:35:01.550Z,2.1
2018-05-21T03:40:01.784Z,2.0
2018-05-21T03:45:01.568Z,2.3
2018-05-21T03:50:01.982Z,2.5
2018-05-21T03:55:01.580Z,2.6
2018-05-21T04:20:01.006Z,2.0
2018-05-21T04:30:00.972Z,2.5
2018-05-21T04:35:00.907Z,2.4
2018-05-21T04:40:00.991Z,2.4
2018-05-21T04:45:01.163Z,2.6
2018-05-21T04:50:01.111Z,2.4
2018-05-21T05:00:01.036Z,2.5
2018-05-21T05:05:00.949Z,2.6
2018-05-21T05:10:00.973Z,2.6
2018-05-21T05:15:00.911Z,2.8
2018-05-21T05:20:00.978Z,3.0
2018-05-21T05:25:00.924Z,3.0
2018-05-21T05:30:01.102Z,3.2
2018-05-21T05:40:01.015Z,3.2
2018-05-21T05:45:00.951Z,3.2
2018-05-21T05:50:01.020Z,3.2
2018-05-21T05:55:00.939Z,3.2
2018-05-21T06:00:01.131Z,3.2
2018-05-21T06:10:01.014Z,3.0
2018-05-21T06:15:00.942Z,3.0
2018-05-21T06:20:01.091Z,2.7
2018-05-21T06:25:00.951Z,2.5
2018-05-21T06:30:00.978Z,2.6
2018-05-21T06:35:00.955Z,2.6
2018-05-21T06:40:01.238Z,2.5
2018-05-21T06:45:00.952Z,2.7
2018-05-21T06:50:01.021Z,2.9
2018-05-21T06:55:00.958Z,3.0
2018-05-21T07:00:01.156Z,2.8
2018-05-21T07:05:00.962Z,2.6
2018-05-21T07:10:01.108Z,2.7
2018-05-21T07:15:00.956Z,2.9
2018-05-21T07:20:01.317Z,3.2
2018-05-21T07:25:00.954Z,3.9
2018-05-21T07:30:01.557Z,4.5
2018-05-21T07:35:00.961Z,4.7
2018-05-21T07:40:01.296Z,4.5
2018-05-21T07:45:00.955Z,4.1
2018-05-21T07:50:01.037Z,3.4
2018-05-21T07:55:00.958Z,2.8
2018-05-21T08:00:01.092Z,2.5
2018-05-21T08:05:00.932Z,2.5
2018-05-21T08:10:01.123Z,2.5
2018-05-21T08:15:00.960Z,2.7
2018-05-21T08:20:01.105Z,3.0
2018-05-21T08:25:01.038Z,3.0
2018-05-21T08:30:01.032Z,3.0
2018-05-21T08:40:01.004Z,3.1
2018-05-21T08:45:00.913Z,3.1
2018-05-21T08:50:01.168Z,3.1
2018-05-21T08:55:00.939Z,3.1
2018-05-21T09:00:01.095Z,3.1
2018-05-21T09:05:00.956Z,3.1
2018-05-21T09:10:01.521Z,3.0
2018-05-21T09:15:00.973Z,2.8
2018-05-21T09:25:01.040Z,3.0
2018-05-21T09:30:01.106Z,3.2
2018-05-21T09:35:00.976Z,3.6
2018-05-21T09:40:01.040Z,3.9
2018-05-21T09:45:00.977Z,4.1
2018-05-21T09:50:01.060Z,4.0
2018-05-21T10:00:01.235Z,4.2
2018-05-21T10:05:00.948Z,4.6
2018-05-21T10:10:01.072Z,5.0
2018-05-21T10:15:00.999Z,5.4
2018-05-21T10:20:01.039Z,5.5
2018-05-21T10:25:00.992Z,5.3
2018-05-21T10:30:01.201Z,4.9
2018-05-21T10:35:00.984Z,4.5
2018-05-21T10:40:01.054Z,4.6
2018-05-21T10:45:00.986Z,4.4
2018-05-21T10:50:01.137Z,4.4
2018-05-21T10:55:00.999Z,4.4
2018-05-21T11:00:01.123Z,4.4
2018-05-21T11:05:00.962Z,4.6
2018-05-21T11:10:01.083Z,4.9
2018-05-21T11:15:01.016Z,5.1
2018-05-21T11:20:01.062Z,5.5
2018-05-21T11:30:01.023Z,5.7
2018-05-21T11:35:00.964Z,5.4
2018-05-21T11:40:01.093Z,5.1
2018-05-21T11:45:00.993Z,4.9
2018-05-21T11:50:01.070Z,4.9
2018-05-21T11:55:01.002Z,4.5
2018-05-21T12:00:01.286Z,4.5
2018-05-21T12:05:01.002Z,4.4
2018-05-21T12:10:01.094Z,3.9
2018-05-21T12:15:01.352Z,3.6
2018-05-21T12:25:01.131Z,3.2
2018-05-21T12:30:01.068Z,3.0
2018-05-21T12:35:01.004Z,3.2
2018-05-21T12:45:01.283Z,3.5
2018-05-21T12:50:01.079Z,3.3
2018-05-21T12:55:01.041Z,3.6
2018-05-21T13:00:01.070Z,3.4
2018-05-21T13:05:01.004Z,3.2
2018-05-21T13:10:01.163Z,3.0
2018-05-21T13:15:01.080Z,3.4
2018-05-21T13:20:01.143Z,3.3
2018-05-21T13:25:01.009Z,3.4
2018-05-21T13:30:01.130Z,3.5
2018-05-21T13:35:01.028Z,3.4
2018-05-21T13:40:01.092Z,3.4
2018-05-21T13:45:01.238Z,3.3
2018-05-21T13:50:01.152Z,3.5
2018-05-21T13:55:01.031Z,3.4
2018-05-21T14:00:01.156Z,3.6
2018-05-21T14:05:01.070Z,3.4
2018-05-21T14:10:01.186Z,3.2
2018-05-21T14:15:01.104Z,2.9
2018-05-21T14:25:01.387Z,2.8
2018-05-21T14:30:01.171Z,3.0
2018-05-21T14:35:00.994Z,3.0
2018-05-21T14:40:01.093Z,3.1
2018-05-21T14:45:01.345Z,3.0
2018-05-21T14:50:01.159Z,2.7
2018-05-21T14:55:01.322Z,2.3
2018-05-21T15:00:01.165Z,2.1
2018-05-21T15:05:01.005Z,2.0
2018-05-21T15:10:01.121Z,2.2
2018-05-21T15:15:02.349Z,2.4
2018-05-21T15:20:01.176Z,2.5
2018-05-21T15:30:01.143Z,2.6
2018-05-21T15:35:01.038Z,2.4
2018-05-21T15:40:01.124Z,2.2
2018-05-21T15:45:01.045Z,2.2
2018-05-21T15:50:01.104Z,2.0
2018-05-21T16:00:01.040Z,2.2
2018-05-21T16:05:01.035Z,2.3
2018-05-21T16:10:01.172Z,2.5
2018-05-21T16:15:01.006Z,2.5
2018-05-21T16:20:01.120Z,2.4
2018-05-21T16:30:01.315Z,2.5
2018-05-21T16:40:01.172Z,2.3
2018-05-21T16:45:01.048Z,2.2
2018-05-21T16:50:01.289Z,2.0
2018-05-21T16:55:01.078Z,2.0
2018-05-21T17:00:01.264Z,2.0
2018-05-21T17:05:01.267Z,1.8
2018-05-21T17:15:01.205Z,1.7
2018-05-21T17:20:01.372Z,1.6
2018-05-21T17:25:01.057Z,1.6
2018-05-21T17:30:01.146Z,1.8
2018-05-21T17:35:01.060Z,1.7
2018-05-21T17:40:01.116Z,1.8
2018-05-21T17:45:01.064Z,1.9
2018-05-21T17:50:01.186Z,1.7
2018-05-21T17:55:01.058Z,1.7
2018-05-21T18:00:01.153Z,2.1
2018-05-21T18:05:01.062Z,2.2
2018-05-21T18:10:01.179Z,2.2
2018-05-21T18:15:01.031Z,2.4
2018-05-21T18:25:01.095Z,2.4
2018-05-21T18:30:01.356Z,2.2
2018-05-21T18:35:01.006Z,2.4
2018-05-21T18:40:01.098Z,2.6
2018-05-21T18:45:01.100Z,2.4
2018-05-21T18:50:01.038Z,2.5
2018-05-21T18:55:01.110Z,2.5
2018-05-21T19:00:01.383Z,2.5
2018-05-21T19:05:01.041Z,2.3
2018-05-21T19:10:01.212Z,2.3
2018-05-21T19:15:01.073Z,2.4
2018-05-21T19:20:01.142Z,2.2
2018-05-21T19:25:01.110Z,2.1
2018-05-21T19:30:01.210Z,2.1
2018-05-21T19:35:01.329Z,2.1
2018-05-21T19:40:01.147Z,2.0
2018-05-21T19:45:01.091Z,2.3
2018-05-21T19:50:01.150Z,2.2
2018-05-21T19:50:01.184Z,2.0
2018-05-21T19:55:00.995Z,2.2
2018-05-21T19:55:01.194Z,2.0
2018-05-21T20:00:01.804Z,2.2
2018-05-21T20:00:01.907Z,2.0
2018-05-21T20:05:01.076Z,2.3
2018-05-21T20:05:01.172Z,2.3
2018-05-21T20:15:01.175Z,2.4
2018-05-21T20:15:01.214Z,2.4
2018-05-21T20:20:01.156Z,2.6
2018-05-21T20:20:01.169Z,2.6
2018-05-21T20:30:01.181Z,2.8
2018-05-21T20:30:06.273Z,2.8
2018-05-21T20:35:01.061Z,3.0
2018-05-21T20:35:01.214Z,3.0
2018-05-21T20:40:01.248Z,2.7
2018-05-21T20:40:01.756Z,2.7
2018-05-21T20:45:01.051Z,2.7
2018-05-21T20:45:01.220Z,2.7
2018-05-21T20:50:01.159Z,2.7
2018-05-21T20:50:01.213Z,2.7
2018-05-21T20:55:00.988Z,2.7
2018-05-21T20:55:01.296Z,2.7
2018-05-21T21:00:01.251Z,2.8
2018-05-21T21:00:01.323Z,2.8
2018-05-21T21:05:01.033Z,3.2
2018-05-21T21:05:01.217Z,3.2
2018-05-21T21:10:01.129Z,3.4
2018-05-21T21:10:01.219Z,3.4
2018-05-21T21:15:01.096Z,3.5
2018-05-21T21:15:01.215Z,3.5
2018-05-21T21:20:01.157Z,3.5
2018-05-21T21:20:01.221Z,3.5
2018-05-21T21:30:01.181Z,3.4
2018-05-21T21:30:01.220Z,3.4
2018-05-21T21:35:01.085Z,3.4
2018-05-21T21:35:01.179Z,3.4
2018-05-21T21:40:01.229Z,3.6
2018-05-21T21:40:06.231Z,3.6
2018-05-21T21:45:01.090Z,3.8
2018-05-21T21:45:01.228Z,3.8
2018-05-21T21:50:01.221Z,3.8
2018-05-21T21:50:01.285Z,3.8
2018-05-21T21:55:01.075Z,4.1
2018-05-21T21:55:01.348Z,4.1
2018-05-21T22:00:01.167Z,4.1
2018-05-21T22:00:01.218Z,4.1
2018-05-21T22:10:02.496Z,4.2
2018-05-21T22:15:01.092Z,4.4
2018-05-21T22:20:01.240Z,4.5
2018-05-21T22:25:01.159Z,4.7
2018-05-21T22:30:01.166Z,4.7
2018-05-21T22:35:01.087Z,4.6
2018-05-21T22:40:01.182Z,4.4
2018-05-21T22:45:01.108Z,4.4
2018-05-21T22:50:01.241Z,4.7
2018-05-21T23:00:01.165Z,5.4
2018-05-21T23:05:01.104Z,6.2
2018-05-21T23:10:01.268Z,6.2
2018-05-21T23:15:01.168Z,6.3
2018-05-21T23:20:01.234Z,6.3
2018-05-21T23:25:01.103Z,6.6
2018-05-21T23:30:01.240Z,6.4
2018-05-21T23:35:01.079Z,6.8
2018-05-21T23:40:01.180Z,6.5
2018-05-21T23:45:01.112Z,7.2
2018-05-21T23:50:01.200Z,7.4
2018-05-21T23:55:01.116Z,7.3
